Forney's Hourly Summary for Friday, July 6, 2018
Hour Temp
(f)
RH
(%)
Solar Rad.
(MJ/m2)
Rainfall
(in)
Wind
(mph)
7/6/2018 12:00 AM 80 73 0 0 2.35
7/6/2018 1:00 AM 80 73 0 0 1.43
7/6/2018 2:00 AM 79 74 0 0 1.92
7/6/2018 3:00 AM 78 75 0 0 1.56
7/6/2018 4:00 AM 78 77 0 0 1.05
7/6/2018 5:00 AM 76 81 0 0 0.02
7/6/2018 6:00 AM 76 84 0 0 0
7/6/2018 7:00 AM 75 84 0.05 0 0.4
7/6/2018 8:00 AM 76 82 0.36 0 1.58
7/6/2018 9:00 AM 80 73 1.08 0 2.69
7/6/2018 10:00 AM 84 66 1.78 0 3.1
7/6/2018 11:00 AM 87 55 1.75 0 3.46
7/6/2018 12:00 PM 89 50 1.93 0 4.36
7/6/2018 1:00 PM 91 45 2.13 0 4.63
7/6/2018 2:00 PM 93 40 2.45 0 4.43
7/6/2018 3:00 PM 87 40 0.7 0.19 6.2
7/6/2018 4:00 PM 76 76 0.14 0 2.07
7/6/2018 5:00 PM 79 72 0.69 0 0.7
7/6/2018 6:00 PM 82 64 1.03 0 1.99
7/6/2018 7:00 PM 83 64 0.43 0 2.47
7/6/2018 8:00 PM 82 68 0.24 0 1.47
7/6/2018 9:00 PM 79 70 0.02 0 2.99
7/6/2018 10:00 PM 78 76 0 0 3.06
7/6/2018 11:00 PM 78 76 0 0 1.93
Data Summary 81 68 14.78 0.19 2.33